Lost River, West Virginia
Current Conditions -  °F | °C
As of 12:55 AM on Sunday 23 Nov 2014 (Local Time) from K8W2 Reporting Station
Broken Clouds Broken Clouds  
Wind Chill: 36°   Ceiling: 10000
Heat Index: 40°   Visibility: 10mi
Dew Point: 20°   Wind: 6mph
Humidity: 45%   Direction: 240°WSW
Pressure: 30.21"   Gusts: NA
Location:  38.9097°N, 78.8027°W
Report Text: K8W2 230555Z AUTO 24005KT 10SM BKN100 05/M06 A3021 RMK AO1 T00451065 10072 20020
Loading
Personal Weather Stations






























Interactive Weather Map New forecast layout! Learn more

10-Day Weather Forecast

Advertisements
Track Severe Weather on mobile